sensor_id;sensor_type;location;lat;lon;timestamp;pressure;altitude;pressure_sealevel;temperature;humidity
53715;BME280;39608;55.630;37.864;2023-02-04T00:01:50;98937.44;;;1.20;70.83
53715;BME280;39608;55.630;37.864;2023-02-04T00:06:52;98938.19;;;1.15;70.72
53715;BME280;39608;55.630;37.864;2023-02-04T00:11:55;98937.94;;;1.17;70.98
53715;BME280;39608;55.630;37.864;2023-02-04T00:16:57;98955.09;;;1.21;70.79
53715;BME280;39608;55.630;37.864;2023-02-04T00:21:59;98952.09;;;1.17;70.54
53715;BME280;39608;55.630;37.864;2023-02-04T00:27:05;98961.44;;;1.15;70.56
53715;BME280;39608;55.630;37.864;2023-02-04T00:32:07;98959.81;;;1.14;70.80
53715;BME280;39608;55.630;37.864;2023-02-04T00:37:09;98960.09;;;1.17;70.71
53715;BME280;39608;55.630;37.864;2023-02-04T00:42:12;98964.47;;;1.24;70.92
53715;BME280;39608;55.630;37.864;2023-02-04T00:47:14;98976.28;;;1.28;70.61
53715;BME280;39608;55.630;37.864;2023-02-04T00:52:16;98971.75;;;1.28;70.44
53715;BME280;39608;55.630;37.864;2023-02-04T00:57:20;98969.91;;;1.29;70.27
53715;BME280;39608;55.630;37.864;2023-02-04T01:02:22;98984.72;;;1.19;70.60
53715;BME280;39608;55.630;37.864;2023-02-04T01:07:23;98978.16;;;1.10;70.26
53715;BME280;39608;55.630;37.864;2023-02-04T01:12:27;98986.19;;;1.10;70.57
53715;BME280;39608;55.630;37.864;2023-02-04T01:17:29;98985.88;;;1.07;70.30
53715;BME280;39608;55.630;37.864;2023-02-04T01:22:31;98990.22;;;1.13;70.30
53715;BME280;39608;55.630;37.864;2023-02-04T01:27:34;98996.19;;;1.20;70.61
53715;BME280;39608;55.630;37.864;2023-02-04T01:32:36;99000.25;;;1.23;70.43
53715;BME280;39608;55.630;37.864;2023-02-04T01:37:38;98989.00;;;1.21;70.53
53715;BME280;39608;55.630;37.864;2023-02-04T01:42:42;98998.16;;;1.25;70.30
53715;BME280;39608;55.630;37.864;2023-02-04T01:47:45;99006.22;;;1.30;70.13
53715;BME280;39608;55.630;37.864;2023-02-04T01:52:47;99015.31;;;1.29;70.25
53715;BME280;39608;55.630;37.864;2023-02-04T01:57:51;99009.06;;;1.23;70.00
53715;BME280;39608;55.630;37.864;2023-02-04T02:02:53;99026.56;;;1.14;69.93
53715;BME280;39608;55.630;37.864;2023-02-04T02:07:57;99033.13;;;1.06;70.17
53715;BME280;39608;55.630;37.864;2023-02-04T02:13:03;99031.94;;;0.97;70.04
53715;BME280;39608;55.630;37.864;2023-02-04T02:18:05;99045.53;;;0.95;70.19
53715;BME280;39608;55.630;37.864;2023-02-04T02:23:14;99042.28;;;0.93;70.29
53715;BME280;39608;55.630;37.864;2023-02-04T02:28:21;99046.81;;;0.93;70.06
53715;BME280;39608;55.630;37.864;2023-02-04T02:33:23;99046.22;;;0.91;70.05
53715;BME280;39608;55.630;37.864;2023-02-04T02:38:26;99042.44;;;0.87;70.19
53715;BME280;39608;55.630;37.864;2023-02-04T02:43:29;99040.09;;;0.90;70.32
53715;BME280;39608;55.630;37.864;2023-02-04T02:48:32;99062.44;;;1.01;70.20
53715;BME280;39608;55.630;37.864;2023-02-04T02:53:34;99061.34;;;1.02;70.22
53715;BME280;39608;55.630;37.864;2023-02-04T02:58:37;99063.06;;;1.08;70.04
53715;BME280;39608;55.630;37.864;2023-02-04T03:03:43;99072.94;;;1.08;69.91
53715;BME280;39608;55.630;37.864;2023-02-04T03:08:47;99075.38;;;1.09;69.97
53715;BME280;39608;55.630;37.864;2023-02-04T03:13:52;99083.38;;;1.09;70.13
53715;BME280;39608;55.630;37.864;2023-02-04T03:18:54;99073.75;;;1.08;70.08
53715;BME280;39608;55.630;37.864;2023-02-04T03:23:56;99078.59;;;1.11;69.98
53715;BME280;39608;55.630;37.864;2023-02-04T03:29:00;99088.25;;;1.12;69.96
53715;BME280;39608;55.630;37.864;2023-02-04T03:34:02;99089.28;;;1.11;70.01
53715;BME280;39608;55.630;37.864;2023-02-04T03:39:04;99090.56;;;1.09;69.95
53715;BME280;39608;55.630;37.864;2023-02-04T03:44:07;99107.25;;;1.16;69.99
53715;BME280;39608;55.630;37.864;2023-02-04T03:49:09;99104.91;;;1.19;70.01
53715;BME280;39608;55.630;37.864;2023-02-04T03:54:11;99108.72;;;1.24;70.08
53715;BME280;39608;55.630;37.864;2023-02-04T03:59:14;99104.16;;;1.24;69.85
53715;BME280;39608;55.630;37.864;2023-02-04T04:04:17;99110.25;;;1.19;69.56
53715;BME280;39608;55.630;37.864;2023-02-04T04:09:19;99113.97;;;1.18;69.72
53715;BME280;39608;55.630;37.864;2023-02-04T04:14:22;99120.69;;;1.21;69.61
53715;BME280;39608;55.630;37.864;2023-02-04T04:19:24;99136.38;;;1.17;69.88
53715;BME280;39608;55.630;37.864;2023-02-04T04:24:26;99128.44;;;1.23;69.83
53715;BME280;39608;55.630;37.864;2023-02-04T04:29:31;99135.28;;;1.30;69.57
53715;BME280;39608;55.630;37.864;2023-02-04T04:34:35;99139.59;;;1.53;69.45
53715;BME280;39608;55.630;37.864;2023-02-04T04:39:37;99143.84;;;1.32;69.00
53715;BME280;39608;55.630;37.864;2023-02-04T04:44:40;99133.94;;;1.33;68.44
53715;BME280;39608;55.630;37.864;2023-02-04T04:49:42;99141.66;;;1.29;67.70
53715;BME280;39608;55.630;37.864;2023-02-04T04:54:44;99138.41;;;1.27;67.52
53715;BME280;39608;55.630;37.864;2023-02-04T04:59:48;99148.38;;;1.32;67.23
53715;BME280;39608;55.630;37.864;2023-02-04T05:04:50;99151.59;;;1.34;66.94
53715;BME280;39608;55.630;37.864;2023-02-04T05:09:52;99163.34;;;1.33;66.75
53715;BME280;39608;55.630;37.864;2023-02-04T05:14:55;99160.19;;;1.36;66.62
53715;BME280;39608;55.630;37.864;2023-02-04T05:19:57;99163.19;;;1.40;66.23
53715;BME280;39608;55.630;37.864;2023-02-04T05:24:59;99179.53;;;1.43;66.04
53715;BME280;39608;55.630;37.864;2023-02-04T05:30:03;99177.75;;;1.49;65.91
53715;BME280;39608;55.630;37.864;2023-02-04T05:35:06;99184.41;;;1.46;65.99
53715;BME280;39608;55.630;37.864;2023-02-04T05:40:08;99189.25;;;1.49;66.28
53715;BME280;39608;55.630;37.864;2023-02-04T05:45:13;99193.22;;;1.47;66.28
53715;BME280;39608;55.630;37.864;2023-02-04T05:50:16;99213.31;;;1.49;66.57
53715;BME280;39608;55.630;37.864;2023-02-04T05:55:18;99220.28;;;1.50;66.13
53715;BME280;39608;55.630;37.864;2023-02-04T06:00:25;99225.78;;;1.61;66.04
53715;BME280;39608;55.630;37.864;2023-02-04T06:05:27;99239.72;;;1.63;66.49
53715;BME280;39608;55.630;37.864;2023-02-04T06:10:29;99233.53;;;1.62;66.57
53715;BME280;39608;55.630;37.864;2023-02-04T06:15:33;99247.59;;;1.69;66.66
53715;BME280;39608;55.630;37.864;2023-02-04T06:20:35;99245.72;;;1.70;66.76
53715;BME280;39608;55.630;37.864;2023-02-04T06:25:36;99251.63;;;1.72;66.95
53715;BME280;39608;55.630;37.864;2023-02-04T06:30:40;99265.22;;;1.70;67.19
53715;BME280;39608;55.630;37.864;2023-02-04T06:35:43;99270.91;;;1.74;67.20
53715;BME280;39608;55.630;37.864;2023-02-04T06:40:45;99269.38;;;1.78;67.27
53715;BME280;39608;55.630;37.864;2023-02-04T06:45:50;99273.50;;;1.86;67.56
53715;BME280;39608;55.630;37.864;2023-02-04T06:50:52;99287.19;;;1.90;67.44
53715;BME280;39608;55.630;37.864;2023-02-04T06:55:54;99283.31;;;1.97;67.44
53715;BME280;39608;55.630;37.864;2023-02-04T07:00:57;99286.78;;;2.15;67.53
53715;BME280;39608;55.630;37.864;2023-02-04T07:05:59;99292.94;;;2.15;66.97
53715;BME280;39608;55.630;37.864;2023-02-04T07:11:01;99295.28;;;2.12;66.76
53715;BME280;39608;55.630;37.864;2023-02-04T07:16:05;99305.00;;;2.18;67.58
53715;BME280;39608;55.630;37.864;2023-02-04T07:21:07;99308.56;;;2.23;66.97
53715;BME280;39608;55.630;37.864;2023-02-04T07:26:09;99304.06;;;2.24;67.14
53715;BME280;39608;55.630;37.864;2023-02-04T07:31:12;99312.63;;;2.26;66.66
53715;BME280;39608;55.630;37.864;2023-02-04T07:36:14;99317.88;;;2.21;66.82
53715;BME280;39608;55.630;37.864;2023-02-04T07:41:16;99318.47;;;2.23;66.99
53715;BME280;39608;55.630;37.864;2023-02-04T07:46:19;99325.59;;;2.34;66.53
53715;BME280;39608;55.630;37.864;2023-02-04T07:51:21;99331.75;;;2.35;66.22
53715;BME280;39608;55.630;37.864;2023-02-04T07:56:23;99340.03;;;2.33;66.66
53715;BME280;39608;55.630;37.864;2023-02-04T08:01:27;99342.00;;;2.77;68.19
53715;BME280;39608;55.630;37.864;2023-02-04T08:06:29;99343.09;;;3.75;65.98
53715;BME280;39608;55.630;37.864;2023-02-04T08:11:30;99350.53;;;3.95;63.59
53715;BME280;39608;55.630;37.864;2023-02-04T08:16:34;99353.19;;;3.68;64.13
53715;BME280;39608;55.630;37.864;2023-02-04T08:21:36;99349.75;;;3.45;64.94
53715;BME280;39608;55.630;37.864;2023-02-04T08:26:38;99357.69;;;3.57;63.85
53715;BME280;39608;55.630;37.864;2023-02-04T08:31:41;99370.47;;;3.77;63.30
53715;BME280;39608;55.630;37.864;2023-02-04T08:36:43;99369.28;;;3.68;63.83
53715;BME280;39608;55.630;37.864;2023-02-04T08:41:45;99371.03;;;3.52;64.10
53715;BME280;39608;55.630;37.864;2023-02-04T08:46:50;99381.41;;;3.48;64.06
53715;BME280;39608;55.630;37.864;2023-02-04T08:51:51;99380.84;;;3.68;64.09
53715;BME280;39608;55.630;37.864;2023-02-04T08:56:53;99388.13;;;3.73;64.27
53715;BME280;39608;55.630;37.864;2023-02-04T09:01:57;99386.09;;;3.58;63.75
53715;BME280;39608;55.630;37.864;2023-02-04T09:06:59;99381.63;;;3.41;64.37
53715;BME280;39608;55.630;37.864;2023-02-04T09:12:00;99382.00;;;3.28;64.63
53715;BME280;39608;55.630;37.864;2023-02-04T09:17:04;99387.44;;;3.33;64.62
53715;BME280;39608;55.630;37.864;2023-02-04T09:22:07;99384.44;;;3.30;64.15
53715;BME280;39608;55.630;37.864;2023-02-04T09:27:09;99387.19;;;3.35;64.46
53715;BME280;39608;55.630;37.864;2023-02-04T09:32:12;99397.06;;;3.34;64.87
53715;BME280;39608;55.630;37.864;2023-02-04T09:37:14;99401.53;;;3.23;64.41
53715;BME280;39608;55.630;37.864;2023-02-04T09:42:18;99395.03;;;3.19;64.84
53715;BME280;39608;55.630;37.864;2023-02-04T09:47:24;99406.31;;;3.21;65.34
53715;BME280;39608;55.630;37.864;2023-02-04T09:52:27;99420.06;;;3.30;64.79
53715;BME280;39608;55.630;37.864;2023-02-04T09:57:29;99421.19;;;3.34;64.33
53715;BME280;39608;55.630;37.864;2023-02-04T10:02:34;99412.34;;;3.34;63.17
53715;BME280;39608;55.630;37.864;2023-02-04T10:07:36;99421.47;;;3.11;63.32
53715;BME280;39608;55.630;37.864;2023-02-04T10:12:38;99430.16;;;3.01;63.45
53715;BME280;39608;55.630;37.864;2023-02-04T10:17:42;99434.19;;;3.03;63.81
53715;BME280;39608;55.630;37.864;2023-02-04T10:22:44;99437.13;;;3.02;63.79
53715;BME280;39608;55.630;37.864;2023-02-04T10:27:48;99435.91;;;3.10;63.55
53715;BME280;39608;55.630;37.864;2023-02-04T10:32:52;99447.63;;;3.25;64.24
53715;BME280;39608;55.630;37.864;2023-02-04T10:38:05;99453.34;;;3.51;63.84
53715;BME280;39608;55.630;37.864;2023-02-04T10:43:08;99451.53;;;3.57;63.88
53715;BME280;39608;55.630;37.864;2023-02-04T10:48:15;99451.19;;;3.75;63.59
53715;BME280;39608;55.630;37.864;2023-02-04T10:53:19;99455.78;;;3.80;63.22
53715;BME280;39608;55.630;37.864;2023-02-04T10:58:40;99462.53;;;3.83;63.12
53715;BME280;39608;55.630;37.864;2023-02-04T11:03:43;99473.59;;;3.86;62.96
53715;BME280;39608;55.630;37.864;2023-02-04T11:08:45;99482.63;;;3.80;62.90
53715;BME280;39608;55.630;37.864;2023-02-04T11:13:58;99478.25;;;3.74;63.09
53715;BME280;39608;55.630;37.864;2023-02-04T11:19:04;99475.25;;;3.48;62.80
53715;BME280;39608;55.630;37.864;2023-02-04T11:24:22;99477.88;;;3.43;62.78
53715;BME280;39608;55.630;37.864;2023-02-04T11:29:25;99485.56;;;3.56;63.51
53715;BME280;39608;55.630;37.864;2023-02-04T11:34:44;99483.44;;;3.36;63.57
53715;BME280;39608;55.630;37.864;2023-02-04T11:39:47;99487.91;;;3.31;63.68
53715;BME280;39608;55.630;37.864;2023-02-04T11:44:57;99491.47;;;3.36;63.88
53715;BME280;39608;55.630;37.864;2023-02-04T11:50:04;99496.50;;;3.33;63.92
53715;BME280;39608;55.630;37.864;2023-02-04T11:55:15;99501.16;;;3.20;64.35
53715;BME280;39608;55.630;37.864;2023-02-04T12:00:20;99510.19;;;3.14;63.84
53715;BME280;39608;55.630;37.864;2023-02-04T12:05:37;99513.91;;;3.13;64.44
53715;BME280;39608;55.630;37.864;2023-02-04T12:10:47;99517.00;;;3.05;64.76
53715;BME280;39608;55.630;37.864;2023-02-04T12:15:58;99527.25;;;2.91;65.13
53715;BME280;39608;55.630;37.864;2023-02-04T12:21:02;99531.38;;;2.82;65.13
53715;BME280;39608;55.630;37.864;2023-02-04T12:26:04;99538.13;;;2.84;65.65
53715;BME280;39608;55.630;37.864;2023-02-04T12:31:06;99546.16;;;2.84;65.67
53715;BME280;39608;55.630;37.864;2023-02-04T12:36:09;99546.72;;;2.86;65.70
53715;BME280;39608;55.630;37.864;2023-02-04T12:41:11;99550.38;;;2.80;65.77
53715;BME280;39608;55.630;37.864;2023-02-04T12:46:14;99553.88;;;2.81;65.53
53715;BME280;39608;55.630;37.864;2023-02-04T12:51:20;99560.75;;;2.77;65.53
53715;BME280;39608;55.630;37.864;2023-02-04T12:56:22;99570.06;;;2.74;65.74
53715;BME280;39608;55.630;37.864;2023-02-04T13:01:24;99577.56;;;2.72;65.77
53715;BME280;39608;55.630;37.864;2023-02-04T13:06:28;99584.63;;;2.78;65.94
53715;BME280;39608;55.630;37.864;2023-02-04T13:11:30;99594.34;;;2.67;66.31
53715;BME280;39608;55.630;37.864;2023-02-04T13:16:32;99592.88;;;2.60;66.27
53715;BME280;39608;55.630;37.864;2023-02-04T13:21:35;99602.66;;;2.54;66.67
53715;BME280;39608;55.630;37.864;2023-02-04T13:26:37;99609.13;;;2.41;66.69
53715;BME280;39608;55.630;37.864;2023-02-04T13:31:39;99613.09;;;2.27;66.90
53715;BME280;39608;55.630;37.864;2023-02-04T13:36:43;99606.75;;;2.16;67.33
53715;BME280;39608;55.630;37.864;2023-02-04T13:41:45;99608.53;;;2.10;67.39
53715;BME280;39608;55.630;37.864;2023-02-04T13:46:49;99609.44;;;2.04;67.45
53715;BME280;39608;55.630;37.864;2023-02-04T13:51:52;99617.38;;;1.99;67.66
53715;BME280;39608;55.630;37.864;2023-02-04T13:56:54;99620.06;;;1.87;67.64
53715;BME280;39608;55.630;37.864;2023-02-04T14:02:00;99622.84;;;1.80;67.73
53715;BME280;39608;55.630;37.864;2023-02-04T14:07:03;99632.28;;;1.71;68.20
53715;BME280;39608;55.630;37.864;2023-02-04T14:12:08;99634.03;;;1.65;68.12
53715;BME280;39608;55.630;37.864;2023-02-04T14:17:10;99638.13;;;1.68;68.40
53715;BME280;39608;55.630;37.864;2023-02-04T14:22:13;99637.75;;;1.64;68.69
53715;BME280;39608;55.630;37.864;2023-02-04T14:27:15;99660.78;;;1.65;68.79
53715;BME280;39608;55.630;37.864;2023-02-04T14:32:17;99656.47;;;1.64;68.87
53715;BME280;39608;55.630;37.864;2023-02-04T14:37:21;99671.81;;;1.69;68.84
53715;BME280;39608;55.630;37.864;2023-02-04T14:42:25;99678.31;;;1.73;69.15
53715;BME280;39608;55.630;37.864;2023-02-04T14:47:27;99670.41;;;1.66;69.06
53715;BME280;39608;55.630;37.864;2023-02-04T14:52:30;99680.31;;;1.78;68.82
53715;BME280;39608;55.630;37.864;2023-02-04T14:57:32;99691.69;;;1.73;68.72
53715;BME280;39608;55.630;37.864;2023-02-04T15:02:34;99692.63;;;1.67;68.89
53715;BME280;39608;55.630;37.864;2023-02-04T15:07:37;99686.22;;;1.68;69.53
53715;BME280;39608;55.630;37.864;2023-02-04T15:12:40;99704.94;;;1.68;69.30
53715;BME280;39608;55.630;37.864;2023-02-04T15:17:42;99704.72;;;1.69;69.27
53715;BME280;39608;55.630;37.864;2023-02-04T15:22:45;99700.75;;;1.72;69.10
53715;BME280;39608;55.630;37.864;2023-02-04T15:27:51;99706.44;;;1.76;68.71
53715;BME280;39608;55.630;37.864;2023-02-04T15:32:53;99712.41;;;1.78;69.00
53715;BME280;39608;55.630;37.864;2023-02-04T15:37:56;99719.00;;;1.87;69.10
53715;BME280;39608;55.630;37.864;2023-02-04T15:42:58;99729.81;;;1.80;68.70
53715;BME280;39608;55.630;37.864;2023-02-04T15:48:00;99729.34;;;1.71;68.40
53715;BME280;39608;55.630;37.864;2023-02-04T15:53:04;99731.56;;;1.63;68.99
53715;BME280;39608;55.630;37.864;2023-02-04T15:58:06;99739.91;;;1.54;69.10
53715;BME280;39608;55.630;37.864;2023-02-04T16:03:08;99739.75;;;1.49;68.88
53715;BME280;39608;55.630;37.864;2023-02-04T16:08:11;99743.84;;;1.52;69.07
53715;BME280;39608;55.630;37.864;2023-02-04T16:13:14;99744.44;;;1.54;68.98
53715;BME280;39608;55.630;37.864;2023-02-04T16:18:16;99759.19;;;1.57;68.99
53715;BME280;39608;55.630;37.864;2023-02-04T16:23:19;99771.66;;;1.63;69.05
53715;BME280;39608;55.630;37.864;2023-02-04T16:28:21;99772.69;;;1.62;68.96
53715;BME280;39608;55.630;37.864;2023-02-04T16:33:23;99774.56;;;1.61;68.78
53715;BME280;39608;55.630;37.864;2023-02-04T16:38:29;99779.44;;;1.64;68.97
53715;BME280;39608;55.630;37.864;2023-02-04T16:43:32;99784.31;;;1.67;69.20
53715;BME280;39608;55.630;37.864;2023-02-04T16:48:34;99783.06;;;1.70;68.80
53715;BME280;39608;55.630;37.864;2023-02-04T16:53:38;99801.19;;;1.80;69.05
53715;BME280;39608;55.630;37.864;2023-02-04T16:58:40;99800.84;;;1.76;69.04
53715;BME280;39608;55.630;37.864;2023-02-04T17:03:42;99802.47;;;1.77;69.39
53715;BME280;39608;55.630;37.864;2023-02-04T17:08:45;99799.09;;;1.82;69.25
53715;BME280;39608;55.630;37.864;2023-02-04T17:13:47;99807.81;;;1.77;69.09
53715;BME280;39608;55.630;37.864;2023-02-04T17:18:49;99812.59;;;1.75;68.63
53715;BME280;39608;55.630;37.864;2023-02-04T17:23:53;99821.88;;;1.73;69.12
53715;BME280;39608;55.630;37.864;2023-02-04T17:28:55;99813.16;;;1.65;69.39
53715;BME280;39608;55.630;37.864;2023-02-04T17:33:57;99821.97;;;1.66;68.63
53715;BME280;39608;55.630;37.864;2023-02-04T17:39:01;99827.81;;;1.75;69.08
53715;BME280;39608;55.630;37.864;2023-02-04T17:44:04;99834.22;;;1.74;69.14
53715;BME280;39608;55.630;37.864;2023-02-04T17:49:06;99833.38;;;1.73;69.00
53715;BME280;39608;55.630;37.864;2023-02-04T17:54:10;99837.22;;;1.77;69.37
53715;BME280;39608;55.630;37.864;2023-02-04T17:59:12;99841.53;;;1.78;69.49
53715;BME280;39608;55.630;37.864;2023-02-04T18:04:15;99841.78;;;1.77;69.24
53715;BME280;39608;55.630;37.864;2023-02-04T18:09:18;99844.56;;;1.82;69.11
53715;BME280;39608;55.630;37.864;2023-02-04T18:14:23;99857.94;;;1.82;69.46
53715;BME280;39608;55.630;37.864;2023-02-04T18:19:28;99836.84;;;1.62;69.46
53715;BME280;39608;55.630;37.864;2023-02-04T18:24:34;99858.38;;;1.67;69.63
53715;BME280;39608;55.630;37.864;2023-02-04T18:29:39;99850.44;;;1.60;69.26
53715;BME280;39608;55.630;37.864;2023-02-04T18:34:44;99846.97;;;1.60;69.42
53715;BME280;39608;55.630;37.864;2023-02-04T18:39:48;99862.53;;;1.63;69.63
53715;BME280;39608;55.630;37.864;2023-02-04T18:44:50;99872.06;;;1.59;69.24
53715;BME280;39608;55.630;37.864;2023-02-04T18:49:54;99868.56;;;1.58;69.64
53715;BME280;39608;55.630;37.864;2023-02-04T18:54:58;99872.19;;;1.64;69.77
53715;BME280;39608;55.630;37.864;2023-02-04T19:00:19;99855.28;;;1.51;69.77
53715;BME280;39608;55.630;37.864;2023-02-04T19:05:25;99885.75;;;1.62;69.72
53715;BME280;39608;55.630;37.864;2023-02-04T19:10:31;99899.72;;;1.64;69.78
53715;BME280;39608;55.630;37.864;2023-02-04T19:15:36;99901.22;;;1.60;69.70
53715;BME280;39608;55.630;37.864;2023-02-04T19:20:39;99909.25;;;1.60;69.66
53715;BME280;39608;55.630;37.864;2023-02-04T19:25:44;99895.88;;;1.60;69.60
53715;BME280;39608;55.630;37.864;2023-02-04T19:30:48;99918.53;;;1.58;69.57
53715;BME280;39608;55.630;37.864;2023-02-04T19:35:50;99912.59;;;1.56;69.86
53715;BME280;39608;55.630;37.864;2023-02-04T19:40:53;99912.84;;;1.54;69.72
53715;BME280;39608;55.630;37.864;2023-02-04T19:45:55;99921.03;;;1.52;70.08
53715;BME280;39608;55.630;37.864;2023-02-04T19:50:58;99924.09;;;1.56;69.75
53715;BME280;39608;55.630;37.864;2023-02-04T19:56:25;99917.03;;;1.62;70.12
53715;BME280;39608;55.630;37.864;2023-02-04T20:01:28;99929.00;;;1.59;69.84
53715;BME280;39608;55.630;37.864;2023-02-04T20:06:32;99927.81;;;1.55;69.88
53715;BME280;39608;55.630;37.864;2023-02-04T20:11:55;99940.41;;;1.66;69.64
53715;BME280;39608;55.630;37.864;2023-02-04T20:16:59;99948.38;;;1.54;69.72
53715;BME280;39608;55.630;37.864;2023-02-04T20:22:31;99951.34;;;1.65;69.86
53715;BME280;39608;55.630;37.864;2023-02-04T20:27:40;99944.53;;;1.50;69.56
53715;BME280;39608;55.630;37.864;2023-02-04T20:32:43;99953.34;;;1.51;69.53
53715;BME280;39608;55.630;37.864;2023-02-04T20:37:49;99967.66;;;1.57;69.56
53715;BME280;39608;55.630;37.864;2023-02-04T20:42:56;99953.28;;;1.58;70.51
53715;BME280;39608;55.630;37.864;2023-02-04T20:48:21;99968.44;;;1.64;69.84
53715;BME280;39608;55.630;37.864;2023-02-04T20:53:29;99973.78;;;1.64;69.63
53715;BME280;39608;55.630;37.864;2023-02-04T20:58:40;99967.53;;;1.70;69.82
53715;BME280;39608;55.630;37.864;2023-02-04T21:03:44;99972.94;;;1.63;69.24
53715;BME280;39608;55.630;37.864;2023-02-04T21:08:48;99978.16;;;1.58;69.59
53715;BME280;39608;55.630;37.864;2023-02-04T21:13:53;99973.19;;;1.43;69.74
53715;BME280;39608;55.630;37.864;2023-02-04T21:18:55;99978.22;;;1.33;69.80
53715;BME280;39608;55.630;37.864;2023-02-04T21:23:57;99984.22;;;1.28;70.09
53715;BME280;39608;55.630;37.864;2023-02-04T21:29:00;99985.25;;;1.27;70.04
53715;BME280;39608;55.630;37.864;2023-02-04T21:34:03;99981.03;;;1.19;70.03
53715;BME280;39608;55.630;37.864;2023-02-04T21:39:05;100001.22;;;1.15;70.26
53715;BME280;39608;55.630;37.864;2023-02-04T21:44:08;99997.28;;;1.18;70.09
53715;BME280;39608;55.630;37.864;2023-02-04T21:49:10;99999.34;;;1.16;70.17
53715;BME280;39608;55.630;37.864;2023-02-04T21:54:13;100008.84;;;1.12;70.00
53715;BME280;39608;55.630;37.864;2023-02-04T21:59:17;100016.72;;;1.07;70.04
53715;BME280;39608;55.630;37.864;2023-02-04T22:04:20;100025.81;;;0.99;70.08
53715;BME280;39608;55.630;37.864;2023-02-04T22:09:22;100034.84;;;0.98;70.14
53715;BME280;39608;55.630;37.864;2023-02-04T22:14:25;100037.53;;;0.98;70.32
53715;BME280;39608;55.630;37.864;2023-02-04T22:19:27;100036.34;;;0.94;70.04
53715;BME280;39608;55.630;37.864;2023-02-04T22:24:29;100049.09;;;0.92;69.85
53715;BME280;39608;55.630;37.864;2023-02-04T22:29:32;100051.53;;;0.93;70.11
53715;BME280;39608;55.630;37.864;2023-02-04T22:34:34;100055.03;;;0.94;70.01
53715;BME280;39608;55.630;37.864;2023-02-04T22:39:36;100060.81;;;0.91;69.88
53715;BME280;39608;55.630;37.864;2023-02-04T22:44:40;100069.66;;;0.91;70.06
53715;BME280;39608;55.630;37.864;2023-02-04T22:49:42;100068.25;;;0.82;69.85
53715;BME280;39608;55.630;37.864;2023-02-04T22:54:44;100067.72;;;0.73;69.67
53715;BME280;39608;55.630;37.864;2023-02-04T22:59:47;100077.38;;;0.74;69.87
53715;BME280;39608;55.630;37.864;2023-02-04T23:04:49;100066.50;;;0.69;70.32
53715;BME280;39608;55.630;37.864;2023-02-04T23:09:51;100066.06;;;0.72;70.11
53715;BME280;39608;55.630;37.864;2023-02-04T23:14:54;100086.78;;;0.77;70.25
53715;BME280;39608;55.630;37.864;2023-02-04T23:19:56;100087.66;;;0.71;69.96
53715;BME280;39608;55.630;37.864;2023-02-04T23:24:58;100091.56;;;0.68;69.87
53715;BME280;39608;55.630;37.864;2023-02-04T23:30:02;100079.72;;;0.57;69.97
53715;BME280;39608;55.630;37.864;2023-02-04T23:35:05;100083.69;;;0.48;69.76
53715;BME280;39608;55.630;37.864;2023-02-04T23:40:08;100090.25;;;0.45;69.78
53715;BME280;39608;55.630;37.864;2023-02-04T23:45:12;100099.91;;;0.46;70.22
53715;BME280;39608;55.630;37.864;2023-02-04T23:50:14;100087.84;;;0.37;70.02
53715;BME280;39608;55.630;37.864;2023-02-04T23:55:16;100097.09;;;0.34;70.04
